Time;durP1;ratioP1;P1;durP2;ratioP2;P2;SDS_P1;SDS_P2;PMS_P1;PMS_P2;Temp;Humidity;BMP_temperature;BMP_pressure;BME280_temperature;BME280_humidity;BME280_pressure;Samples;Min_cycle;Max_cycle;Signal;HPM_P1;HPM_P2
2021/06/14 00:01:38;;;;;;;10.32;5.93;;;;;11.30;101250.00;;;;5048371;28;20020;-76
2021/06/14 00:04:05;;;;;;;11.45;6.55;;;;;11.30;101258.00;;;;5048436;28;20522;-73
2021/06/14 00:06:33;;;;;;;13.30;6.40;;;;;11.30;101241.00;;;;5048049;28;20086;-75
2021/06/14 00:09:01;;;;;;;13.15;5.45;;;;;11.20;101244.00;;;;5047820;28;20021;-75
2021/06/14 00:11:27;;;;;;;11.48;5.22;;;;;11.20;101249.00;;;;5047986;28;20021;-74
2021/06/14 00:13:54;;;;;;;15.07;5.07;;;;;11.20;101253.00;;;;5047654;28;20029;-72
2021/06/14 00:16:21;;;;;;;9.45;5.80;;;;;11.10;101232.00;;;;5048090;28;20036;-74
2021/06/14 00:18:48;;;;;;;10.15;4.78;;;;;11.10;101245.00;;;;5047820;28;20491;-74
2021/06/14 00:21:17;;;;;;;9.85;4.80;;;;;11.10;101226.00;;;;5048554;28;20475;-78
2021/06/14 00:23:44;;;;;;;10.77;5.13;;;;;10.90;101250.00;;;;5047876;28;20104;-75
2021/06/14 00:26:13;;;;;;;12.10;6.78;;;;;10.80;101252.00;;;;5047832;28;20069;-76
2021/06/14 00:28:40;;;;;;;11.40;6.80;;;;;10.90;101232.00;;;;5048014;28;20108;-76
2021/06/14 00:31:09;;;;;;;16.38;7.55;;;;;10.90;101253.00;;;;5047336;28;20036;-72
2021/06/14 00:33:36;;;;;;;13.93;7.82;;;;;10.90;101260.00;;;;5047097;28;20119;-73
2021/06/14 00:36:04;;;;;;;20.13;8.50;;;;;10.90;101251.00;;;;5046621;28;20025;-72
2021/06/14 00:38:31;;;;;;;11.75;7.55;;;;;10.90;101239.00;;;;5044137;28;20029;-72
2021/06/14 00:40:57;;;;;;;15.32;7.55;;;;;10.90;101244.00;;;;5032523;28;20563;-72
2021/06/14 00:43:24;;;;;;;12.65;7.43;;;;;10.90;101235.00;;;;5026735;28;20108;-75
2021/06/14 00:45:52;;;;;;;17.27;7.50;;;;;10.90;101255.00;;;;5027138;28;20512;-72
2021/06/14 00:48:19;;;;;;;9.15;5.88;;;;;10.90;101235.00;;;;5028042;28;20030;-73
2021/06/14 00:50:52;;;;;;;16.88;6.28;;;;;10.90;101241.00;;;;5025664;28;20150;-74
2021/06/14 00:53:26;;;;;;;6.18;4.90;;;;;10.80;101259.00;;;;5027858;28;20033;-75
2021/06/14 00:55:53;;;;;;;12.60;5.15;;;;;10.70;101265.00;;;;5027605;28;20028;-73
2021/06/14 00:58:20;;;;;;;11.80;6.05;;;;;10.60;101238.00;;;;5027643;28;20041;-75
2021/06/14 01:00:47;;;;;;;11.52;6.47;;;;;10.60;101261.00;;;;5027115;28;20025;-75
2021/06/14 01:03:14;;;;;;;10.15;5.25;;;;;10.50;101262.00;;;;5026785;28;20025;-74
2021/06/14 01:06:01;;;;;;;12.35;5.65;;;;;10.50;101239.00;;;;5026084;28;20119;-75
2021/06/14 01:08:30;;;;;;;14.00;10.02;;;;;10.50;101257.00;;;;5026419;28;20115;-74
2021/06/14 01:10:58;;;;;;;13.57;11.40;;;;;10.50;101239.00;;;;5027174;28;20087;-76
2021/06/14 01:13:42;;;;;;;18.42;10.18;;;;;10.40;101239.00;;;;5027750;28;20096;-75
2021/06/14 01:16:36;;;;;;;14.82;9.30;;;;;10.50;101259.00;;;;5027028;28;20033;-73
2021/06/14 01:19:14;;;;;;;17.67;8.60;;;;;10.50;101259.00;;;;5026827;28;20037;-72
2021/06/14 01:22:06;;;;;;;12.48;7.25;;;;;10.40;101212.00;;;;5027129;28;20038;-73
2021/06/14 01:24:35;;;;;;;;;;;;;10.40;101251.00;;;;5014621;28;20052;-75
2021/06/14 01:27:01;;;;;;;11.13;5.68;;;;;10.40;101252.00;;;;5026689;28;19947;-76
2021/06/14 01:29:30;;;;;;;5.93;5.32;;;;;10.40;101258.00;;;;5027098;28;20052;-75
2021/06/14 01:31:58;;;;;;;6.93;5.40;;;;;10.40;101249.00;;;;5026550;28;20025;-74
2021/06/14 01:34:27;;;;;;;8.52;4.60;;;;;10.40;101246.00;;;;5026573;28;20806;-73
2021/06/14 01:36:56;;;;;;;6.65;5.03;;;;;10.40;101237.00;;;;5026707;28;20072;-74
2021/06/14 01:39:24;;;;;;;8.13;5.22;;;;;10.40;101250.00;;;;5027369;28;20132;-73
2021/06/14 01:41:52;;;;;;;9.23;4.90;;;;;10.40;101251.00;;;;5026516;28;20536;-74
2021/06/14 01:44:19;;;;;;;10.10;4.68;;;;;10.40;101248.00;;;;5026646;28;20120;-72
2021/06/14 01:46:48;;;;;;;7.53;4.40;;;;;10.30;101246.00;;;;5027520;28;20536;-72
2021/06/14 01:49:16;;;;;;;8.38;4.70;;;;;10.30;101240.00;;;;5025504;28;20060;-72
2021/06/14 01:51:43;;;;;;;8.68;5.30;;;;;10.30;101242.00;;;;5025865;28;20039;-74
2021/06/14 01:54:10;;;;;;;7.00;5.07;;;;;10.40;101231.00;;;;5027048;28;20753;-72
2021/06/14 01:56:41;;;;;;;8.30;5.65;;;;;10.40;101253.00;;;;5026885;28;20041;-73
2021/06/14 01:59:10;;;;;;;6.32;5.60;;;;;10.40;101245.00;;;;5026090;28;20140;-74
2021/06/14 02:01:39;;;;;;;9.75;5.55;;;;;10.40;101242.00;;;;5026914;28;20388;-72
2021/06/14 02:04:05;;;;;;;9.48;5.80;;;;;10.40;101260.00;;;;5026425;28;20029;-75
2021/06/14 02:06:39;;;;;;;11.27;5.55;;;;;10.40;101239.00;;;;5026645;28;20499;-76
2021/06/14 02:09:10;;;;;;;15.00;5.93;;;;;10.30;101230.00;;;;5025947;28;20488;-73
2021/06/14 02:11:42;;;;;;;6.95;4.95;;;;;10.30;101232.00;;;;5026211;28;20091;-74
2021/06/14 02:14:12;;;;;;;6.85;5.50;;;;;10.30;101260.00;;;;5025379;28;20033;-73
2021/06/14 02:16:39;;;;;;;8.65;5.45;;;;;10.20;101241.00;;;;5024323;28;20034;-75
2021/06/14 02:19:07;;;;;;;12.38;5.57;;;;;10.20;101248.00;;;;5028310;28;20056;-74
2021/06/14 02:21:42;;;;;;;8.48;5.05;;;;;10.20;101234.00;;;;5030230;28;20021;-74
2021/06/14 02:24:10;;;;;;;10.98;5.03;;;;;10.20;101247.00;;;;5029815;28;20042;-74
2021/06/14 02:26:38;;;;;;;8.63;4.75;;;;;10.10;101252.00;;;;5030036;28;20052;-75
2021/06/14 02:29:04;;;;;;;8.18;5.20;;;;;10.10;101230.00;;;;5031054;28;20025;-76
2021/06/14 02:31:33;;;;;;;9.07;5.82;;;;;10.10;101241.00;;;;5029670;28;20042;-75
2021/06/14 02:34:04;;;;;;;15.50;5.95;;;;;10.10;101243.00;;;;5029986;28;20044;-74
2021/06/14 02:36:31;;;;;;;8.02;6.25;;;;;10.10;101249.00;;;;5029784;28;20025;-73
2021/06/14 02:39:04;;;;;;;10.38;6.15;;;;;10.10;101237.00;;;;5029644;28;20084;-76
2021/06/14 02:41:30;;;;;;;7.68;5.88;;;;;10.00;101240.00;;;;5030565;28;20055;-73
2021/06/14 02:44:04;;;;;;;11.40;5.70;;;;;10.00;101258.00;;;;5030138;28;20471;-75
2021/06/14 02:46:32;;;;;;;11.68;5.72;;;;;10.00;101244.00;;;;5029863;28;20068;-75
2021/06/14 02:48:59;;;;;;;5.88;5.25;;;;;10.10;101248.00;;;;5030503;28;20026;-75
2021/06/14 02:51:26;;;;;;;7.90;5.45;;;;;10.00;101252.00;;;;5029966;28;20556;-75
2021/06/14 02:54:04;;;;;;;10.07;5.10;;;;;10.00;101260.00;;;;5029730;28;20607;-74
2021/06/14 02:56:36;;;;;;;13.95;4.93;;;;;10.00;101241.00;;;;5030372;28;20025;-74
2021/06/14 02:59:05;;;;;;;7.60;4.75;;;;;10.00;101242.00;;;;5030181;28;20674;-76
2021/06/14 03:01:33;;;;;;;10.85;5.20;;;;;10.10;101239.00;;;;5029457;28;20033;-74
2021/06/14 03:04:03;;;;;;;7.95;5.70;;;;;10.20;101243.00;;;;5029388;28;20511;-72
2021/06/14 03:06:30;;;;;;;8.63;6.03;;;;;10.20;101229.00;;;;5029806;28;20527;-75
2021/06/14 03:08:57;;;;;;;13.55;5.18;;;;;10.20;101238.00;;;;5029822;28;20484;-72
2021/06/14 03:11:29;;;;;;;12.43;4.65;;;;;10.20;101231.00;;;;5029439;28;20383;-75
2021/06/14 03:13:57;;;;;;;9.95;5.40;;;;;10.10;101229.00;;;;5028925;28;20064;-75
2021/06/14 03:16:26;;;;;;;9.60;4.32;;;;;10.00;101244.00;;;;5029084;28;20558;-73
2021/06/14 03:18:54;;;;;;;12.20;6.05;;;;;9.90;101219.00;;;;5029136;28;20038;-72
2021/06/14 03:21:23;;;;;;;9.93;6.97;;;;;9.90;101219.00;;;;5029636;28;20041;-75
2021/06/14 03:23:51;;;;;;;9.82;6.18;;;;;9.80;101238.00;;;;5029361;28;20040;-73
2021/06/14 03:26:20;;;;;;;11.73;6.03;;;;;9.70;101219.00;;;;5029521;28;20090;-73
2021/06/14 03:28:47;;;;;;;6.75;6.05;;;;;9.60;101233.00;;;;5029225;28;20562;-75
2021/06/14 03:31:16;;;;;;;11.48;5.47;;;;;9.60;101227.00;;;;5029099;28;20515;-76
2021/06/14 03:33:48;;;;;;;11.23;6.07;;;;;9.70;101240.00;;;;5028902;28;20033;-76
2021/06/14 03:36:15;;;;;;;;;;;;;9.70;101230.00;;;;5029148;28;20134;-75
2021/06/14 03:38:44;;;;;;;7.30;5.82;;;;;9.60;101231.00;;;;5029014;28;19921;-73
2021/06/14 03:41:11;;;;;;;12.55;7.20;;;;;9.60;101203.00;;;;5028796;28;20055;-74
2021/06/14 03:43:38;;;;;;;9.32;5.93;;;;;9.60;101210.00;;;;5028709;28;20512;-73
2021/06/14 03:46:05;;;;;;;7.53;5.82;;;;;9.60;101223.00;;;;5028918;28;20139;-75
2021/06/14 03:48:31;;;;;;;7.32;5.57;;;;;9.60;101202.00;;;;5029259;28;20039;-75
2021/06/14 03:50:58;;;;;;;10.90;6.35;;;;;9.60;101206.00;;;;5028610;28;20416;-73
2021/06/14 03:53:31;;;;;;;7.47;5.65;;;;;9.50;101215.00;;;;5028749;28;20083;-73
2021/06/14 03:56:02;;;;;;;8.38;5.53;;;;;9.40;101201.00;;;;5028520;28;20049;-72
2021/06/14 03:58:28;;;;;;;8.25;5.00;;;;;9.40;101197.00;;;;5028394;28;20025;-75
2021/06/14 04:00:55;;;;;;;5.35;4.75;;;;;9.40;101217.00;;;;5028359;28;20115;-74
2021/06/14 04:03:25;;;;;;;7.47;5.30;;;;;9.30;101224.00;;;;5028486;28;20037;-73
2021/06/14 04:05:52;;;;;;;6.65;4.45;;;;;9.30;101202.00;;;;5028223;28;20037;-72
2021/06/14 04:08:18;;;;;;;5.90;4.68;;;;;9.30;101209.00;;;;5028467;28;20059;-74
2021/06/14 04:10:45;;;;;;;8.75;5.63;;;;;9.30;101218.00;;;;5028310;28;20030;-74
2021/06/14 04:13:11;;;;;;;9.20;5.22;;;;;9.20;101215.00;;;;5029199;28;20213;-73
2021/06/14 04:15:38;;;;;;;6.40;5.03;;;;;9.20;101187.00;;;;5029101;28;20032;-72
2021/06/14 04:18:05;;;;;;;7.97;4.70;;;;;9.10;101205.00;;;;5028622;28;20041;-74
2021/06/14 04:20:32;;;;;;;10.70;5.05;;;;;9.20;101191.00;;;;5028339;28;20034;-75
2021/06/14 04:22:58;;;;;;;5.40;4.75;;;;;9.20;101205.00;;;;5028232;28;20033;-73
2021/06/14 04:25:25;;;;;;;9.60;4.43;;;;;9.10;101212.00;;;;5028012;28;20075;-74
2021/06/14 04:27:52;;;;;;;7.70;4.60;;;;;9.10;101219.00;;;;5027791;28;20032;-74
2021/06/14 04:30:19;;;;;;;8.05;4.68;;;;;9.10;101208.00;;;;5028615;28;20025;-71
2021/06/14 04:32:46;;;;;;;11.00;5.22;;;;;9.20;101204.00;;;;5028380;28;20726;-75
2021/06/14 04:35:13;;;;;;;5.85;4.38;;;;;9.20;101191.00;;;;5027819;28;20029;-73
2021/06/14 04:37:39;;;;;;;8.55;4.70;;;;;9.10;101193.00;;;;5028110;28;20041;-74
2021/06/14 04:40:07;;;;;;;8.27;4.80;;;;;9.00;101209.00;;;;5028138;28;20025;-76
2021/06/14 04:42:34;;;;;;;7.82;4.93;;;;;9.10;101196.00;;;;5027449;28;20104;-73
2021/06/14 04:45:01;;;;;;;7.35;4.28;;;;;9.00;101190.00;;;;5027797;28;20086;-75
2021/06/14 04:47:28;;;;;;;5.55;4.07;;;;;9.10;101197.00;;;;5027131;28;20575;-74
2021/06/14 04:49:57;;;;;;;5.50;4.47;;;;;9.00;101173.00;;;;5027335;28;20116;-72
2021/06/14 04:52:24;;;;;;;11.32;4.45;;;;;9.00;101187.00;;;;5027296;28;20389;-73
2021/06/14 04:54:51;;;;;;;5.78;3.90;;;;;9.00;101182.00;;;;5027273;28;20033;-74
2021/06/14 04:57:17;;;;;;;12.00;4.15;;;;;8.90;101197.00;;;;5027338;28;20028;-73
2021/06/14 04:59:44;;;;;;;9.18;4.05;;;;;8.90;101195.00;;;;5027584;28;20102;-75
2021/06/14 05:02:10;;;;;;;5.78;4.63;;;;;8.90;101182.00;;;;5026549;28;20606;-72
2021/06/14 05:04:37;;;;;;;9.27;4.45;;;;;9.00;101193.00;;;;5028335;28;20028;-73
2021/06/14 05:07:03;;;;;;;9.52;4.43;;;;;9.00;101196.00;;;;5026695;28;20775;-74
2021/06/14 05:09:30;;;;;;;5.78;3.72;;;;;8.90;101180.00;;;;5027395;28;20025;-75
2021/06/14 05:11:56;;;;;;;6.60;3.90;;;;;8.90;101205.00;;;;5027399;28;20501;-73
2021/06/14 05:14:23;;;;;;;6.53;3.95;;;;;8.90;101204.00;;;;5027658;28;20393;-72
2021/06/14 05:16:50;;;;;;;5.82;3.90;;;;;8.90;101204.00;;;;5027357;28;20026;-75
2021/06/14 05:19:16;;;;;;;4.80;4.30;;;;;8.90;101189.00;;;;5026844;28;20091;-74
2021/06/14 05:21:43;;;;;;;11.35;4.35;;;;;8.80;101203.00;;;;5026823;28;20111;-74
2021/06/14 05:24:10;;;;;;;11.38;4.30;;;;;8.90;101204.00;;;;5027474;28;20034;-74
2021/06/14 05:26:36;;;;;;;7.43;4.07;;;;;8.90;101197.00;;;;5027420;28;20037;-73
2021/06/14 05:29:03;;;;;;;14.98;5.32;;;;;9.00;101184.00;;;;5027168;28;20022;-72
2021/06/14 05:31:30;;;;;;;8.10;4.82;;;;;9.00;101198.00;;;;5027285;28;20027;-74
2021/06/14 05:33:56;;;;;;;5.88;4.85;;;;;8.90;101198.00;;;;5026830;28;20051;-75
2021/06/14 05:36:23;;;;;;;5.43;3.90;;;;;8.80;101202.00;;;;5026936;28;20034;-72
2021/06/14 05:38:49;;;;;;;4.50;3.15;;;;;8.70;101177.00;;;;5026443;28;20036;-74
2021/06/14 05:41:16;;;;;;;10.32;4.30;;;;;8.70;101204.00;;;;5026989;28;20037;-74
2021/06/14 05:43:43;;;;;;;7.47;4.50;;;;;8.70;101197.00;;;;5027075;28;20065;-75
2021/06/14 05:46:09;;;;;;;9.35;4.53;;;;;8.70;101190.00;;;;5026590;28;20750;-72
2021/06/14 05:48:36;;;;;;;12.15;4.95;;;;;8.60;101178.00;;;;5026567;28;20040;-72
2021/06/14 05:51:02;;;;;;;5.03;3.88;;;;;8.60;101176.00;;;;5026463;28;20444;-73
2021/06/14 05:53:31;;;;;;;9.48;4.85;;;;;8.50;101184.00;;;;5029618;28;20052;-72
2021/06/14 05:55:57;;;;;;;10.98;4.38;;;;;8.60;101171.00;;;;5030716;28;20032;-75
2021/06/14 05:58:24;;;;;;;9.27;4.45;;;;;8.60;101174.00;;;;5031472;28;20029;-75
2021/06/14 06:00:50;;;;;;;5.55;4.03;;;;;8.60;101178.00;;;;5030597;28;20042;-75
2021/06/14 06:03:17;;;;;;;7.35;4.57;;;;;8.70;101165.00;;;;5030490;28;20412;-75
2021/06/14 06:05:43;;;;;;;8.80;4.85;;;;;8.60;101169.00;;;;5030722;28;20018;-72
2021/06/14 06:08:10;;;;;;;8.10;4.57;;;;;8.60;101146.00;;;;5030794;28;20423;-74
2021/06/14 06:10:36;;;;;;;9.93;4.22;;;;;8.50;101165.00;;;;5030423;28;20033;-75
2021/06/14 06:13:03;;;;;;;5.22;4.65;;;;;8.60;101157.00;;;;5030588;28;20032;-75
2021/06/14 06:15:30;;;;;;;6.93;4.32;;;;;8.50;101163.00;;;;5030614;28;20484;-74
2021/06/14 06:17:57;;;;;;;6.68;4.68;;;;;8.60;101141.00;;;;5030301;28;20029;-74
2021/06/14 06:20:23;;;;;;;6.30;5.25;;;;;8.60;101167.00;;;;5030397;28;20025;-72
2021/06/14 06:22:51;;;;;;;8.75;5.68;;;;;8.50;101162.00;;;;5030844;28;20071;-74
2021/06/14 06:25:22;;;;;;;8.10;5.38;;;;;8.50;101151.00;;;;5030456;28;20029;-72
2021/06/14 06:27:50;;;;;;;11.27;5.50;;;;;8.50;101146.00;;;;5030005;28;20623;-75
2021/06/14 06:30:21;;;;;;;8.10;6.20;;;;;8.40;101142.00;;;;5030536;28;20029;-73
2021/06/14 06:32:48;;;;;;;8.95;6.82;;;;;8.50;101140.00;;;;5030465;28;20125;-74
2021/06/14 06:35:14;;;;;;;9.02;6.65;;;;;8.50;101132.00;;;;5030132;28;20033;-72
2021/06/14 06:37:41;;;;;;;9.88;6.65;;;;;8.40;101158.00;;;;5029797;28;20037;-73
2021/06/14 06:40:08;;;;;;;8.65;6.07;;;;;8.50;101126.00;;;;5030045;28;20029;-74
2021/06/14 06:42:36;;;;;;;10.48;6.38;;;;;8.50;101141.00;;;;5029663;28;20493;-73
2021/06/14 06:45:06;;;;;;;12.43;6.13;;;;;8.50;101139.00;;;;5029461;28;20041;-73
2021/06/14 06:47:32;;;;;;;11.55;6.43;;;;;8.50;101132.00;;;;5030053;28;20057;-72
2021/06/14 06:49:59;;;;;;;7.40;5.47;;;;;8.50;101138.00;;;;5030134;28;20036;-72
2021/06/14 06:52:25;;;;;;;6.80;5.20;;;;;8.40;101131.00;;;;5030088;28;20499;-73
2021/06/14 06:54:52;;;;;;;6.78;5.65;;;;;8.40;101138.00;;;;5029319;28;20057;-74
2021/06/14 06:57:20;;;;;;;10.45;5.97;;;;;8.30;101114.00;;;;5029066;28;20370;-75
2021/06/14 06:59:47;;;;;;;7.95;6.25;;;;;8.30;101145.00;;;;5030381;28;20075;-73
2021/06/14 07:02:13;;;;;;;6.50;5.43;;;;;8.30;101123.00;;;;5030092;28;20029;-75
2021/06/14 07:04:40;;;;;;;8.55;5.55;;;;;8.30;101138.00;;;;5028400;28;20025;-72
2021/06/14 07:07:07;;;;;;;12.23;5.32;;;;;8.30;101144.00;;;;5029878;28;20136;-74
2021/06/14 07:09:33;;;;;;;7.80;5.70;;;;;8.30;101136.00;;;;5029552;28;20026;-72
2021/06/14 07:12:00;;;;;;;6.45;4.72;;;;;8.30;101138.00;;;;5029352;28;20067;-73
2021/06/14 07:14:26;;;;;;;5.68;4.70;;;;;8.30;101123.00;;;;5029745;28;20497;-73
2021/06/14 07:16:53;;;;;;;9.80;5.07;;;;;8.30;101141.00;;;;5029763;28;20037;-72
2021/06/14 07:19:19;;;;;;;7.18;5.15;;;;;8.30;101138.00;;;;5029475;28;20060;-72
2021/06/14 07:21:46;;;;;;;7.22;4.60;;;;;8.30;101136.00;;;;5029367;28;20021;-73
2021/06/14 07:24:12;;;;;;;11.57;6.00;;;;;8.20;101123.00;;;;5029016;28;20132;-74
2021/06/14 07:26:39;;;;;;;9.15;5.68;;;;;8.30;101121.00;;;;5029046;28;20037;-72
2021/06/14 07:29:06;;;;;;;9.38;5.85;;;;;8.20;101132.00;;;;5028961;28;20400;-75
2021/06/14 07:31:32;;;;;;;6.07;5.25;;;;;8.20;101120.00;;;;5029131;28;20029;-73
2021/06/14 07:34:01;;;;;;;12.43;5.30;;;;;8.20;101120.00;;;;5028715;28;20121;-74
2021/06/14 07:36:30;;;;;;;7.95;4.70;;;;;8.20;101140.00;;;;5028866;28;20443;-73
2021/06/14 07:38:56;;;;;;;8.55;4.63;;;;;8.20;101138.00;;;;5028917;28;20040;-74
2021/06/14 07:41:23;;;;;;;4.13;3.70;;;;;8.20;101114.00;;;;5029774;28;20025;-74
2021/06/14 07:43:50;;;;;;;4.10;3.72;;;;;8.20;101128.00;;;;5029033;28;20034;-73
2021/06/14 07:46:17;;;;;;;5.13;4.03;;;;;8.10;101119.00;;;;5028400;28;20618;-71
2021/06/14 07:48:44;;;;;;;7.22;4.70;;;;;8.20;101137.00;;;;5028927;28;20033;-74
2021/06/14 07:51:11;;;;;;;5.75;4.10;;;;;8.00;101130.00;;;;5029055;28;20040;-73
2021/06/14 07:53:38;;;;;;;6.22;4.07;;;;;8.00;101107.00;;;;5028369;28;20033;-72
2021/06/14 07:56:07;;;;;;;5.75;3.90;;;;;8.00;101121.00;;;;5028320;28;20492;-74
2021/06/14 07:58:33;;;;;;;6.68;4.30;;;;;8.00;101135.00;;;;5028555;28;20029;-73
2021/06/14 08:01:02;;;;;;;3.92;3.25;;;;;8.00;101125.00;;;;5028781;28;20052;-73
2021/06/14 08:03:29;;;;;;;7.40;3.65;;;;;8.00;101113.00;;;;5028882;28;20034;-72
2021/06/14 08:05:56;;;;;;;4.65;4.07;;;;;8.00;101116.00;;;;5028891;28;20083;-73
2021/06/14 08:08:22;;;;;;;6.47;4.00;;;;;8.00;101107.00;;;;5028290;28;20041;-74
2021/06/14 08:10:50;;;;;;;6.53;3.83;;;;;7.90;101126.00;;;;5028516;28;20057;-73
2021/06/14 08:13:17;;;;;;;8.20;3.72;;;;;8.00;101115.00;;;;5028745;28;20033;-73
2021/06/14 08:15:44;;;;;;;3.97;3.25;;;;;8.00;101100.00;;;;5027025;28;20105;-73
2021/06/14 08:26:16;;;;;;;5.10;3.25;;;;;8.00;101123.00;;;;5028158;28;20060;-73
2021/06/14 08:28:43;;;;;;;8.10;3.35;;;;;8.00;101106.00;;;;5027688;28;20075;-74
2021/06/14 08:31:09;;;;;;;5.63;3.25;;;;;8.00;101105.00;;;;5028036;28;20091;-72
2021/06/14 08:33:36;;;;;;;9.43;3.70;;;;;8.00;101119.00;;;;5027827;28;20488;-74
2021/06/14 08:36:03;;;;;;;24.00;11.18;;;;;8.00;101119.00;;;;5027056;28;20512;-73
2021/06/14 08:38:30;;;;;;;5.60;4.05;;;;;8.00;101107.00;;;;5028129;28;20071;-72
2021/06/14 08:40:56;;;;;;;5.25;4.03;;;;;7.90;101104.00;;;;5027730;28;20500;-74
2021/06/14 08:43:23;;;;;;;5.90;3.92;;;;;7.90;101108.00;;;;5027828;28;20037;-74
2021/06/14 08:45:51;;;;;;;7.47;4.10;;;;;8.00;101109.00;;;;5027164;28;20053;-74
2021/06/14 08:48:18;;;;;;;6.22;4.72;;;;;7.90;101131.00;;;;5028057;28;20033;-73
2021/06/14 08:50:45;;;;;;;8.90;5.47;;;;;7.90;101099.00;;;;5027337;28;20025;-72
2021/06/14 08:53:12;;;;;;;8.43;6.03;;;;;7.90;101122.00;;;;5028043;28;20498;-74
2021/06/14 08:55:41;;;;;;;8.65;5.05;;;;;7.90;101109.00;;;;5027429;28;20113;-71
2021/06/14 08:58:07;;;;;;;10.50;5.60;;;;;7.80;101126.00;;;;5027525;28;20539;-73
2021/06/14 09:00:35;;;;;;;7.13;5.00;;;;;7.90;101125.00;;;;5027528;28;20021;-74
2021/06/14 09:03:01;;;;;;;6.05;5.45;;;;;7.90;101131.00;;;;5027539;28;20029;-73
2021/06/14 09:05:28;;;;;;;10.90;7.60;;;;;7.90;101111.00;;;;5027539;28;20036;-74
2021/06/14 09:07:55;;;;;;;8.10;7.32;;;;;7.90;101124.00;;;;5027499;28;20049;-73
2021/06/14 09:10:23;;;;;;;9.25;7.50;;;;;7.90;101128.00;;;;5027252;28;20496;-72
2021/06/14 09:12:50;;;;;;;10.07;6.47;;;;;7.80;101116.00;;;;5026839;28;20071;-71
2021/06/14 09:15:18;;;;;;;8.35;6.50;;;;;7.80;101134.00;;;;5027780;28;20036;-73
2021/06/14 09:17:57;;;;;;;6.85;5.03;;;;;7.80;101133.00;;;;5026994;28;20565;-72
2021/06/14 09:20:26;;;;;;;10.38;4.88;;;;;7.90;101134.00;;;;5026600;28;20392;-73
2021/06/14 09:22:53;;;;;;;7.35;4.50;;;;;7.80;101129.00;;;;5027615;28;20037;-74
2021/06/14 09:25:20;;;;;;;4.50;3.75;;;;;7.70;101125.00;;;;5027341;28;20029;-73
2021/06/14 09:27:52;;;;;;;5.88;3.90;;;;;7.80;101118.00;;;;5027305;28;20512;-73
2021/06/14 09:30:21;;;;;;;;;;;;;7.80;101134.00;;;;5027290;28;20069;-75
2021/06/14 09:32:57;;;;;;;4.80;3.72;;;;;7.70;101129.00;;;;5026964;28;20374;-76
2021/06/14 09:35:26;;;;;;;13.13;3.67;;;;;7.70;101128.00;;;;5026236;28;20552;-73
2021/06/14 09:37:59;;;;;;;4.55;3.33;;;;;7.70;101140.00;;;;5026040;28;20040;-73
2021/06/14 09:40:58;;;;;;;3.30;2.90;;;;;7.70;101130.00;;;;5027045;28;20079;-74
2021/06/14 09:43:37;;;;;;;5.28;3.13;;;;;7.70;101128.00;;;;5019028;28;20056;-75
2021/06/14 09:46:06;;;;;;;5.53;3.25;;;;;7.70;101145.00;;;;5026632;28;22333;-72
2021/06/14 09:48:36;;;;;;;8.67;3.70;;;;;7.70;101141.00;;;;5027034;28;20050;-73
2021/06/14 09:51:07;;;;;;;10.40;4.25;;;;;7.70;101131.00;;;;5027384;28;20033;-72
2021/06/14 09:53:47;;;;;;;9.38;3.33;;;;;7.60;101103.00;;;;5036783;28;20507;-73
2021/06/14 09:56:19;;;;;;;6.28;3.33;;;;;7.60;101123.00;;;;5046568;28;20082;-75
2021/06/14 09:58:48;;;;;;;7.07;3.50;;;;;7.70;101105.00;;;;5046410;28;20033;-73
2021/06/14 10:01:23;;;;;;;4.50;3.28;;;;;7.70;101121.00;;;;5046382;28;20071;-75
2021/06/14 10:03:50;;;;;;;4.78;3.38;;;;;7.60;101113.00;;;;5047080;28;20080;-75
2021/06/14 10:06:36;;;;;;;8.77;3.45;;;;;7.60;101127.00;;;;5046418;28;20025;-75
2021/06/14 10:09:09;;;;;;;10.93;3.13;;;;;7.60;101112.00;;;;5046172;28;20614;-74
2021/06/14 10:11:37;;;;;;;5.65;3.13;;;;;7.70;101132.00;;;;5047200;28;20043;-75
2021/06/14 10:14:18;;;;;;;6.68;3.90;;;;;7.70;101115.00;;;;5046289;28;20025;-75
2021/06/14 10:16:48;;;;;;;16.88;4.60;;;;;7.60;101123.00;;;;5046764;28;20048;-74
2021/06/14 10:19:17;;;;;;;15.85;6.40;;;;;7.60;101114.00;;;;5046336;28;20499;-72
2021/06/14 10:21:46;;;;;;;44.92;17.70;;;;;7.70;101116.00;;;;5046496;28;20028;-74
2021/06/14 10:24:21;;;;;;;39.00;16.50;;;;;7.70;101112.00;;;;5046855;28;20507;-75
2021/06/14 10:26:54;;;;;;;28.83;11.45;;;;;7.60;101121.00;;;;5045556;28;20503;-75
2021/06/14 10:29:22;;;;;;;39.35;12.85;;;;;7.70;101121.00;;;;5045812;28;20127;-72
2021/06/14 10:31:50;;;;;;;17.38;9.43;;;;;7.80;101127.00;;;;5045451;28;20029;-72
2021/06/14 10:34:18;;;;;;;19.35;8.98;;;;;7.80;101119.00;;;;5046101;28;20074;-75
2021/06/14 10:36:53;;;;;;;13.95;6.55;;;;;7.80;101134.00;;;;5046285;28;20095;-75
2021/06/14 10:39:23;;;;;;;21.83;8.63;;;;;7.90;101122.00;;;;5047122;28;20112;-75
2021/06/14 10:41:50;;;;;;;8.35;5.85;;;;;7.90;101131.00;;;;5050853;28;20025;-74
2021/06/14 10:44:17;;;;;;;9.85;6.13;;;;;7.90;101128.00;;;;5049396;28;20035;-74
2021/06/14 10:46:47;;;;;;;21.75;10.60;;;;;7.90;101132.00;;;;5049462;28;20057;-72
2021/06/14 10:49:16;;;;;;;26.50;12.48;;;;;8.00;101122.00;;;;5048359;28;20090;-74
2021/06/14 10:51:45;;;;;;;23.52;10.68;;;;;8.30;101091.00;;;;5049990;28;20029;-75
2021/06/14 10:54:15;;;;;;;25.60;16.67;;;;;9.30;101058.00;;;;5049565;28;20043;-73
2021/06/14 10:56:42;;;;;;;21.40;9.43;;;;;10.00;101036.00;;;;5049584;28;20087;-75
2021/06/14 10:59:12;;;;;;;23.70;7.20;;;;;10.00;101092.00;;;;5049375;28;20021;-75
2021/06/14 11:01:42;;;;;;;15.43;5.28;;;;;9.60;101073.00;;;;5049778;28;20060;-72
2021/06/14 11:04:09;;;;;;;15.95;4.82;;;;;10.50;101050.00;;;;5049867;28;20035;-74
2021/06/14 11:06:38;;;;;;;15.35;3.95;;;;;10.70;101080.00;;;;5049586;28;20033;-74
2021/06/14 11:09:13;;;;;;;16.92;4.25;;;;;11.20;101052.00;;;;5049829;28;20128;-75
2021/06/14 11:11:54;;;;;;;26.60;4.60;;;;;13.00;101010.00;;;;5049151;28;20029;-72
2021/06/14 11:14:35;;;;;;;14.97;4.70;;;;;12.50;101067.00;;;;5049265;28;20029;-73
2021/06/14 11:17:20;;;;;;;22.60;4.55;;;;;12.20;101049.00;;;;5049258;28;20040;-74
2021/06/14 11:19:50;;;;;;;19.15;3.90;;;;;12.90;101042.00;;;;5048902;28;20039;-74
2021/06/14 11:22:18;;;;;;;27.23;4.45;;;;;14.00;100985.00;;;;5049443;28;20032;-75
2021/06/14 11:24:46;;;;;;;29.88;5.50;;;;;14.80;100992.00;;;;5048907;28;20116;-75
2021/06/14 11:27:13;;;;;;;6.60;2.88;;;;;14.50;100999.00;;;;5049286;28;20043;-74
2021/06/14 11:29:50;;;;;;;13.70;3.55;;;;;15.50;100964.00;;;;5049527;28;20021;-74
2021/06/14 11:32:20;;;;;;;11.27;3.67;;;;;17.80;100916.00;;;;5048707;28;20028;-74
2021/06/14 11:34:58;;;;;;;15.00;3.28;;;;;18.70;100899.00;;;;5049446;28;20500;-73
2021/06/14 11:37:45;;;;;;;15.60;10.55;;;;;19.40;100887.00;;;;5048842;28;20021;-74
2021/06/14 11:40:14;;;;;;;10.30;2.40;;;;;19.10;100906.00;;;;5047565;28;20036;-75
2021/06/14 11:42:49;;;;;;;5.97;2.25;;;;;19.50;100927.00;;;;5048526;28;20078;-72
2021/06/14 11:45:38;;;;;;;8.60;2.60;;;;;19.60;100897.00;;;;5048506;28;20029;-74
2021/06/14 11:48:20;;;;;;;8.30;2.40;;;;;19.80;100902.00;;;;5048923;28;20103;-73
2021/06/14 11:50:47;;;;;;;4.90;2.10;;;;;19.70;100920.00;;;;5046735;28;20021;-74
2021/06/14 11:53:14;;;;;;;6.63;2.00;;;;;20.30;100946.00;;;;5048390;28;20119;-72
2021/06/14 11:55:44;;;;;;;19.13;7.70;;;;;20.50;100948.00;;;;5048707;28;20518;-72
2021/06/14 11:58:13;;;;;;;6.57;2.13;;;;;20.70;100961.00;;;;5048577;28;20033;-74
2021/06/14 12:00:45;;;;;;;18.50;3.00;;;;;21.00;100967.00;;;;5048302;28;20025;-73
2021/06/14 12:03:23;;;;;;;6.38;2.67;;;;;21.50;100979.00;;;;5048612;28;20116;-72
2021/06/14 12:05:52;;;;;;;9.43;2.30;;;;;20.90;100986.00;;;;5047374;28;20404;-75
2021/06/14 12:08:21;;;;;;;3.20;1.98;;;;;21.00;100965.00;;;;5048164;28;20519;-72
2021/06/14 12:10:54;;;;;;;17.58;4.85;;;;;21.40;100970.00;;;;5048364;28;20037;-73
2021/06/14 12:13:22;;;;;;;12.18;2.95;;;;;21.40;100985.00;;;;5048474;28;20033;-74
2021/06/14 12:15:56;;;;;;;12.95;2.85;;;;;21.90;100967.00;;;;5048484;28;20025;-73
2021/06/14 12:18:23;;;;;;;6.78;2.50;;;;;21.80;100977.00;;;;5048364;28;20069;-76
2021/06/14 12:21:02;;;;;;;9.80;2.67;;;;;22.80;101008.00;;;;5048774;28;20568;-73
2021/06/14 12:23:37;;;;;;;8.65;2.50;;;;;22.60;101022.00;;;;5048085;28;20039;-73
2021/06/14 12:26:11;;;;;;;6.00;2.60;;;;;22.40;101007.00;;;;5048179;28;20072;-74
2021/06/14 12:28:39;;;;;;;6.90;2.70;;;;;22.40;100962.00;;;;5047806;28;20043;-72